sensor_id;sensor_type;location;lat;lon;timestamp;temperature;humidity
9919;DHT22;4998;51.024;13.828;2023-04-01T00:01:26;14.60;80.50
9919;DHT22;4998;51.024;13.828;2023-04-01T00:03:53;14.60;80.60
9919;DHT22;4998;51.024;13.828;2023-04-01T00:06:22;14.60;80.70
9919;DHT22;4998;51.024;13.828;2023-04-01T00:08:49;14.60;80.90
9919;DHT22;4998;51.024;13.828;2023-04-01T00:11:17;14.60;81.10
9919;DHT22;4998;51.024;13.828;2023-04-01T00:13:45;14.60;81.30
9919;DHT22;4998;51.024;13.828;2023-04-01T00:16:12;14.60;81.30
9919;DHT22;4998;51.024;13.828;2023-04-01T00:18:40;14.60;81.50
9919;DHT22;4998;51.024;13.828;2023-04-01T00:21:07;14.60;81.70
9919;DHT22;4998;51.024;13.828;2023-04-01T00:23:34;14.60;81.70
9919;DHT22;4998;51.024;13.828;2023-04-01T00:26:02;14.60;81.70
9919;DHT22;4998;51.024;13.828;2023-04-01T00:28:31;14.60;81.80
9919;DHT22;4998;51.024;13.828;2023-04-01T00:31:04;14.60;81.90
9919;DHT22;4998;51.024;13.828;2023-04-01T00:33:31;14.60;81.90
9919;DHT22;4998;51.024;13.828;2023-04-01T00:36:07;14.60;81.80
9919;DHT22;4998;51.024;13.828;2023-04-01T00:38:35;14.50;82.00
9919;DHT22;4998;51.024;13.828;2023-04-01T00:41:03;14.50;81.80
9919;DHT22;4998;51.024;13.828;2023-04-01T00:43:32;14.50;82.00
9919;DHT22;4998;51.024;13.828;2023-04-01T00:45:59;14.50;82.20
9919;DHT22;4998;51.024;13.828;2023-04-01T00:48:28;14.50;82.20
9919;DHT22;4998;51.024;13.828;2023-04-01T00:51:01;14.50;82.30
9919;DHT22;4998;51.024;13.828;2023-04-01T00:53:30;14.50;82.40
9919;DHT22;4998;51.024;13.828;2023-04-01T00:56:01;14.50;82.60
9919;DHT22;4998;51.024;13.828;2023-04-01T00:58:32;14.50;82.60
9919;DHT22;4998;51.024;13.828;2023-04-01T01:01:03;14.50;82.60
9919;DHT22;4998;51.024;13.828;2023-04-01T01:03:31;14.50;82.70
9919;DHT22;4998;51.024;13.828;2023-04-01T01:06:11;14.50;82.80
9919;DHT22;4998;51.024;13.828;2023-04-01T01:09:06;14.50;83.00
9919;DHT22;4998;51.024;13.828;2023-04-01T01:11:40;14.50;83.10
9919;DHT22;4998;51.024;13.828;2023-04-01T01:14:19;14.50;83.00
9919;DHT22;4998;51.024;13.828;2023-04-01T01:16:52;14.40;83.10
9919;DHT22;4998;51.024;13.828;2023-04-01T01:19:40;14.40;82.90
9919;DHT22;4998;51.024;13.828;2023-04-01T01:22:45;14.40;82.90
9919;DHT22;4998;51.024;13.828;2023-04-01T01:25:25;14.40;83.00
9919;DHT22;4998;51.024;13.828;2023-04-01T01:28:02;14.40;83.10
9919;DHT22;4998;51.024;13.828;2023-04-01T01:30:40;14.40;83.00
9919;DHT22;4998;51.024;13.828;2023-04-01T01:33:35;14.40;83.00
9919;DHT22;4998;51.024;13.828;2023-04-01T01:36:09;14.40;82.90
9919;DHT22;4998;51.024;13.828;2023-04-01T01:38:38;14.40;82.60
9919;DHT22;4998;51.024;13.828;2023-04-01T01:41:07;14.40;82.80
9919;DHT22;4998;51.024;13.828;2023-04-01T01:43:38;14.40;82.90
9919;DHT22;4998;51.024;13.828;2023-04-01T01:46:09;14.40;82.80
9919;DHT22;4998;51.024;13.828;2023-04-01T01:48:38;14.40;82.80
9919;DHT22;4998;51.024;13.828;2023-04-01T01:51:09;14.40;82.70
9919;DHT22;4998;51.024;13.828;2023-04-01T01:53:37;14.40;82.50
9919;DHT22;4998;51.024;13.828;2023-04-01T01:56:05;14.40;82.80
9919;DHT22;4998;51.024;13.828;2023-04-01T01:58:35;14.40;82.80
9919;DHT22;4998;51.024;13.828;2023-04-01T02:01:07;14.40;82.80
9919;DHT22;4998;51.024;13.828;2023-04-01T02:03:39;14.40;82.80
9919;DHT22;4998;51.024;13.828;2023-04-01T02:06:10;14.40;82.70
9919;DHT22;4998;51.024;13.828;2023-04-01T02:08:41;14.40;82.60
9919;DHT22;4998;51.024;13.828;2023-04-01T02:11:12;14.40;82.80
9919;DHT22;4998;51.024;13.828;2023-04-01T02:13:41;14.40;82.60
9919;DHT22;4998;51.024;13.828;2023-04-01T02:16:13;14.40;82.60
9919;DHT22;4998;51.024;13.828;2023-04-01T02:18:44;14.40;82.80
9919;DHT22;4998;51.024;13.828;2023-04-01T02:21:15;14.40;82.70
9919;DHT22;4998;51.024;13.828;2023-04-01T02:23:45;14.40;82.50
9919;DHT22;4998;51.024;13.828;2023-04-01T02:26:14;14.40;82.60
9919;DHT22;4998;51.024;13.828;2023-04-01T02:28:43;14.30;82.40
9919;DHT22;4998;51.024;13.828;2023-04-01T02:31:13;14.40;82.50
9919;DHT22;4998;51.024;13.828;2023-04-01T02:33:41;14.40;82.60
9919;DHT22;4998;51.024;13.828;2023-04-01T02:36:11;14.40;82.50
9919;DHT22;4998;51.024;13.828;2023-04-01T02:38:41;14.30;82.40
9919;DHT22;4998;51.024;13.828;2023-04-01T02:41:08;14.30;82.40
9919;DHT22;4998;51.024;13.828;2023-04-01T02:43:35;14.40;82.30
9919;DHT22;4998;51.024;13.828;2023-04-01T02:46:02;14.40;82.40
9919;DHT22;4998;51.024;13.828;2023-04-01T02:48:30;14.40;82.30
9919;DHT22;4998;51.024;13.828;2023-04-01T02:50:57;14.40;82.30
9919;DHT22;4998;51.024;13.828;2023-04-01T02:53:24;14.30;82.20
9919;DHT22;4998;51.024;13.828;2023-04-01T02:55:53;14.30;82.20
9919;DHT22;4998;51.024;13.828;2023-04-01T02:58:21;14.40;82.20
9919;DHT22;4998;51.024;13.828;2023-04-01T03:00:48;14.40;82.10
9919;DHT22;4998;51.024;13.828;2023-04-01T03:03:15;14.30;82.00
9919;DHT22;4998;51.024;13.828;2023-04-01T03:05:42;14.40;82.10
9919;DHT22;4998;51.024;13.828;2023-04-01T03:08:09;14.40;81.90
9919;DHT22;4998;51.024;13.828;2023-04-01T03:10:37;14.40;81.80
9919;DHT22;4998;51.024;13.828;2023-04-01T03:13:06;14.40;81.80
9919;DHT22;4998;51.024;13.828;2023-04-01T03:15:33;14.40;81.80
9919;DHT22;4998;51.024;13.828;2023-04-01T03:18:00;14.40;81.80
9919;DHT22;4998;51.024;13.828;2023-04-01T03:20:28;14.40;81.80
9919;DHT22;4998;51.024;13.828;2023-04-01T03:22:55;14.40;81.70
9919;DHT22;4998;51.024;13.828;2023-04-01T03:25:23;14.40;81.40
9919;DHT22;4998;51.024;13.828;2023-04-01T03:27:50;14.40;81.50
9919;DHT22;4998;51.024;13.828;2023-04-01T03:30:19;14.40;81.60
9919;DHT22;4998;51.024;13.828;2023-04-01T03:32:46;14.40;81.40
9919;DHT22;4998;51.024;13.828;2023-04-01T03:35:13;14.40;81.40
9919;DHT22;4998;51.024;13.828;2023-04-01T03:37:40;14.40;81.40
9919;DHT22;4998;51.024;13.828;2023-04-01T03:40:08;14.40;81.40
9919;DHT22;4998;51.024;13.828;2023-04-01T03:42:36;14.40;81.40
9919;DHT22;4998;51.024;13.828;2023-04-01T03:45:04;14.40;81.30
9919;DHT22;4998;51.024;13.828;2023-04-01T03:47:32;14.40;81.10
9919;DHT22;4998;51.024;13.828;2023-04-01T03:49:59;14.40;81.00
9919;DHT22;4998;51.024;13.828;2023-04-01T03:52:26;14.40;81.00
9919;DHT22;4998;51.024;13.828;2023-04-01T03:54:53;14.40;80.90
9919;DHT22;4998;51.024;13.828;2023-04-01T03:57:20;14.40;80.90
9919;DHT22;4998;51.024;13.828;2023-04-01T03:59:47;14.40;80.90
9919;DHT22;4998;51.024;13.828;2023-04-01T04:02:15;14.40;80.80
9919;DHT22;4998;51.024;13.828;2023-04-01T04:04:43;14.40;80.80
9919;DHT22;4998;51.024;13.828;2023-04-01T04:07:10;14.50;80.80
9919;DHT22;4998;51.024;13.828;2023-04-01T04:09:37;14.40;80.70
9919;DHT22;4998;51.024;13.828;2023-04-01T04:12:06;14.50;80.60
9919;DHT22;4998;51.024;13.828;2023-04-01T04:14:33;14.50;80.40
9919;DHT22;4998;51.024;13.828;2023-04-01T04:17:00;14.50;80.30
9919;DHT22;4998;51.024;13.828;2023-04-01T04:19:31;14.50;80.20
9919;DHT22;4998;51.024;13.828;2023-04-01T04:22:01;14.50;79.60
9919;DHT22;4998;51.024;13.828;2023-04-01T04:24:28;14.50;80.20
9919;DHT22;4998;51.024;13.828;2023-04-01T04:26:56;14.50;80.00
9919;DHT22;4998;51.024;13.828;2023-04-01T04:29:23;14.50;79.80
9919;DHT22;4998;51.024;13.828;2023-04-01T04:31:50;14.50;79.80
9919;DHT22;4998;51.024;13.828;2023-04-01T04:34:18;14.50;79.80
9919;DHT22;4998;51.024;13.828;2023-04-01T04:36:46;14.50;79.80
9919;DHT22;4998;51.024;13.828;2023-04-01T04:39:14;14.50;79.70
9919;DHT22;4998;51.024;13.828;2023-04-01T04:41:42;14.50;79.70
9919;DHT22;4998;51.024;13.828;2023-04-01T04:44:09;14.50;80.50
9919;DHT22;4998;51.024;13.828;2023-04-01T04:46:37;14.50;79.40
9919;DHT22;4998;51.024;13.828;2023-04-01T04:49:05;14.50;79.30
9919;DHT22;4998;51.024;13.828;2023-04-01T04:51:32;14.50;79.10
9919;DHT22;4998;51.024;13.828;2023-04-01T04:54:01;14.50;79.30
9919;DHT22;4998;51.024;13.828;2023-04-01T04:56:31;14.50;79.10
9919;DHT22;4998;51.024;13.828;2023-04-01T04:58:58;14.50;78.90
9919;DHT22;4998;51.024;13.828;2023-04-01T05:01:25;14.50;79.00
9919;DHT22;4998;51.024;13.828;2023-04-01T05:03:52;14.50;79.00
9919;DHT22;4998;51.024;13.828;2023-04-01T05:06:20;14.50;78.70
9919;DHT22;4998;51.024;13.828;2023-04-01T05:08:47;14.50;78.80
9919;DHT22;4998;51.024;13.828;2023-04-01T05:11:17;14.50;78.80
9919;DHT22;4998;51.024;13.828;2023-04-01T05:13:47;14.50;78.70
9919;DHT22;4998;51.024;13.828;2023-04-01T05:16:15;14.50;78.60
9919;DHT22;4998;51.024;13.828;2023-04-01T05:18:43;14.50;78.50
9919;DHT22;4998;51.024;13.828;2023-04-01T05:21:12;14.50;78.40
9919;DHT22;4998;51.024;13.828;2023-04-01T05:23:40;14.50;78.40
9919;DHT22;4998;51.024;13.828;2023-04-01T05:26:10;14.50;78.40
9919;DHT22;4998;51.024;13.828;2023-04-01T05:28:37;14.50;78.50
9919;DHT22;4998;51.024;13.828;2023-04-01T05:31:06;14.50;78.60
9919;DHT22;4998;51.024;13.828;2023-04-01T05:33:34;14.50;78.70
9919;DHT22;4998;51.024;13.828;2023-04-01T05:36:09;14.50;78.70
9919;DHT22;4998;51.024;13.828;2023-04-01T05:38:36;14.50;78.80
9919;DHT22;4998;51.024;13.828;2023-04-01T05:41:04;14.50;78.80
9919;DHT22;4998;51.024;13.828;2023-04-01T05:43:31;14.60;78.80
9919;DHT22;4998;51.024;13.828;2023-04-01T05:45:58;14.50;78.70
9919;DHT22;4998;51.024;13.828;2023-04-01T05:48:27;14.60;79.00
9919;DHT22;4998;51.024;13.828;2023-04-01T05:50:54;14.60;79.00
9919;DHT22;4998;51.024;13.828;2023-04-01T05:53:21;14.60;79.00
9919;DHT22;4998;51.024;13.828;2023-04-01T05:55:48;14.60;79.00
9919;DHT22;4998;51.024;13.828;2023-04-01T05:58:15;14.60;79.10
9919;DHT22;4998;51.024;13.828;2023-04-01T06:00:42;14.60;79.10
9919;DHT22;4998;51.024;13.828;2023-04-01T06:03:09;14.60;79.10
9919;DHT22;4998;51.024;13.828;2023-04-01T06:05:42;14.60;79.20
9919;DHT22;4998;51.024;13.828;2023-04-01T06:08:11;14.60;79.20
9919;DHT22;4998;51.024;13.828;2023-04-01T06:10:45;14.60;79.30
9919;DHT22;4998;51.024;13.828;2023-04-01T06:13:25;14.70;79.40
9919;DHT22;4998;51.024;13.828;2023-04-01T06:16:00;14.60;79.40
9919;DHT22;4998;51.024;13.828;2023-04-01T06:18:56;14.70;79.50
9919;DHT22;4998;51.024;13.828;2023-04-01T06:21:49;14.70;79.70
9919;DHT22;4998;51.024;13.828;2023-04-01T06:24:44;14.70;79.80
9919;DHT22;4998;51.024;13.828;2023-04-01T06:27:19;14.70;79.70
9919;DHT22;4998;51.024;13.828;2023-04-01T06:29:57;14.70;80.00
9919;DHT22;4998;51.024;13.828;2023-04-01T06:32:44;14.70;79.90
9919;DHT22;4998;51.024;13.828;2023-04-01T06:35:26;14.70;80.10
9919;DHT22;4998;51.024;13.828;2023-04-01T06:38:29;14.70;79.90
9919;DHT22;4998;51.024;13.828;2023-04-01T06:41:22;14.70;79.70
9919;DHT22;4998;51.024;13.828;2023-04-01T06:43:59;14.70;79.70
9919;DHT22;4998;51.024;13.828;2023-04-01T06:46:39;14.70;79.70
9919;DHT22;4998;51.024;13.828;2023-04-01T06:49:31;14.70;79.40
9919;DHT22;4998;51.024;13.828;2023-04-01T06:52:06;14.80;79.50
9919;DHT22;4998;51.024;13.828;2023-04-01T06:54:40;14.80;79.60
9919;DHT22;4998;51.024;13.828;2023-04-01T06:57:20;14.80;79.30
9919;DHT22;4998;51.024;13.828;2023-04-01T06:59:49;14.80;79.10
9919;DHT22;4998;51.024;13.828;2023-04-01T07:02:24;14.90;79.00
9919;DHT22;4998;51.024;13.828;2023-04-01T07:04:53;14.90;78.90
9919;DHT22;4998;51.024;13.828;2023-04-01T07:07:29;14.90;78.80
9919;DHT22;4998;51.024;13.828;2023-04-01T07:10:03;15.00;78.60
9919;DHT22;4998;51.024;13.828;2023-04-01T07:12:38;15.00;78.80
9919;DHT22;4998;51.024;13.828;2023-04-01T07:15:16;15.10;78.30
9919;DHT22;4998;51.024;13.828;2023-04-01T07:17:46;15.10;77.80
9919;DHT22;4998;51.024;13.828;2023-04-01T07:20:20;15.10;77.80
9919;DHT22;4998;51.024;13.828;2023-04-01T07:22:51;15.20;77.90
9919;DHT22;4998;51.024;13.828;2023-04-01T07:25:23;15.20;77.60
9919;DHT22;4998;51.024;13.828;2023-04-01T07:27:52;15.20;77.30
9919;DHT22;4998;51.024;13.828;2023-04-01T07:30:21;15.20;77.20
9919;DHT22;4998;51.024;13.828;2023-04-01T07:32:51;15.20;77.00
9919;DHT22;4998;51.024;13.828;2023-04-01T07:35:25;15.20;76.80
9919;DHT22;4998;51.024;13.828;2023-04-01T07:38:08;15.30;76.80
9919;DHT22;4998;51.024;13.828;2023-04-01T07:40:46;15.20;76.50
9919;DHT22;4998;51.024;13.828;2023-04-01T07:43:24;15.30;76.70
9919;DHT22;4998;51.024;13.828;2023-04-01T07:45:57;15.30;76.30
9919;DHT22;4998;51.024;13.828;2023-04-01T07:48:33;15.30;76.20
9919;DHT22;4998;51.024;13.828;2023-04-01T07:51:05;15.30;76.40
9919;DHT22;4998;51.024;13.828;2023-04-01T07:53:40;15.30;76.20
9919;DHT22;4998;51.024;13.828;2023-04-01T07:56:17;15.40;76.40
9919;DHT22;4998;51.024;13.828;2023-04-01T07:58:57;15.40;76.80
9919;DHT22;4998;51.024;13.828;2023-04-01T08:01:30;15.40;76.00
9919;DHT22;4998;51.024;13.828;2023-04-01T08:07:11;15.50;75.70
9919;DHT22;4998;51.024;13.828;2023-04-01T08:09:54;15.50;75.10
9919;DHT22;4998;51.024;13.828;2023-04-01T08:12:35;15.50;74.90
9919;DHT22;4998;51.024;13.828;2023-04-01T08:15:13;15.50;74.60
9919;DHT22;4998;51.024;13.828;2023-04-01T08:17:47;15.50;74.60
9919;DHT22;4998;51.024;13.828;2023-04-01T08:20:31;15.60;74.60
9919;DHT22;4998;51.024;13.828;2023-04-01T08:23:05;15.50;74.80
9919;DHT22;4998;51.024;13.828;2023-04-01T08:25:34;15.60;74.40
9919;DHT22;4998;51.024;13.828;2023-04-01T08:28:11;15.60;74.70
9919;DHT22;4998;51.024;13.828;2023-04-01T08:30:43;15.60;74.80
9919;DHT22;4998;51.024;13.828;2023-04-01T08:33:17;15.60;74.90
9919;DHT22;4998;51.024;13.828;2023-04-01T08:35:49;15.70;74.60
9919;DHT22;4998;51.024;13.828;2023-04-01T08:38:21;15.70;74.80
9919;DHT22;4998;51.024;13.828;2023-04-01T08:41:04;15.70;74.60
9919;DHT22;4998;51.024;13.828;2023-04-01T08:43:51;15.80;73.70
9919;DHT22;4998;51.024;13.828;2023-04-01T08:46:48;15.80;73.20
9919;DHT22;4998;51.024;13.828;2023-04-01T08:49:31;15.90;72.40
9919;DHT22;4998;51.024;13.828;2023-04-01T08:52:22;15.90;72.20
9919;DHT22;4998;51.024;13.828;2023-04-01T08:58:21;15.80;71.60
9919;DHT22;4998;51.024;13.828;2023-04-01T09:00:54;15.80;71.10
9919;DHT22;4998;51.024;13.828;2023-04-01T09:03:45;15.80;70.70
9919;DHT22;4998;51.024;13.828;2023-04-01T09:06:33;15.80;70.60
9919;DHT22;4998;51.024;13.828;2023-04-01T09:09:30;15.80;71.10
9919;DHT22;4998;51.024;13.828;2023-04-01T09:15:27;15.80;71.00
9919;DHT22;4998;51.024;13.828;2023-04-01T09:18:32;15.70;70.70
9919;DHT22;4998;51.024;13.828;2023-04-01T09:21:30;15.80;70.40
9919;DHT22;4998;51.024;13.828;2023-04-01T09:24:22;15.80;70.90
9919;DHT22;4998;51.024;13.828;2023-04-01T09:27:05;15.80;71.70
9919;DHT22;4998;51.024;13.828;2023-04-01T09:35:46;16.00;73.30
9919;DHT22;4998;51.024;13.828;2023-04-01T09:38:22;16.10;72.10
9919;DHT22;4998;51.024;13.828;2023-04-01T09:40:55;16.20;71.70
9919;DHT22;4998;51.024;13.828;2023-04-01T09:43:27;16.20;71.30
9919;DHT22;4998;51.024;13.828;2023-04-01T09:46:18;16.30;70.70
9919;DHT22;4998;51.024;13.828;2023-04-01T09:49:11;16.30;70.30
9919;DHT22;4998;51.024;13.828;2023-04-01T09:51:53;16.30;69.60
9919;DHT22;4998;51.024;13.828;2023-04-01T09:54:36;16.30;69.50
9919;DHT22;4998;51.024;13.828;2023-04-01T09:57:30;16.30;69.20
9919;DHT22;4998;51.024;13.828;2023-04-01T10:03:38;16.30;69.00
9919;DHT22;4998;51.024;13.828;2023-04-01T10:06:52;16.30;69.40
9919;DHT22;4998;51.024;13.828;2023-04-01T10:22:13;16.50;68.50
9919;DHT22;4998;51.024;13.828;2023-04-01T10:25:03;16.50;67.80
9919;DHT22;4998;51.024;13.828;2023-04-01T10:27:58;16.50;67.90
9919;DHT22;4998;51.024;13.828;2023-04-01T10:36:50;16.40;68.20
9919;DHT22;4998;51.024;13.828;2023-04-01T10:39:44;16.40;68.40
9919;DHT22;4998;51.024;13.828;2023-04-01T10:45:43;16.50;68.80
9919;DHT22;4998;51.024;13.828;2023-04-01T10:54:47;16.40;68.00
9919;DHT22;4998;51.024;13.828;2023-04-01T10:57:47;16.50;68.60
9919;DHT22;4998;51.024;13.828;2023-04-01T11:00:38;16.50;68.60
9919;DHT22;4998;51.024;13.828;2023-04-01T11:03:41;16.50;68.60
9919;DHT22;4998;51.024;13.828;2023-04-01T11:06:46;16.60;68.70
9919;DHT22;4998;51.024;13.828;2023-04-01T11:09:55;16.60;69.30
9919;DHT22;4998;51.024;13.828;2023-04-01T11:12:59;16.70;69.50
9919;DHT22;4998;51.024;13.828;2023-04-01T11:16:03;16.80;68.80
9919;DHT22;4998;51.024;13.828;2023-04-01T11:19:10;16.90;68.90
9919;DHT22;4998;51.024;13.828;2023-04-01T11:21:55;17.00;68.80
9919;DHT22;4998;51.024;13.828;2023-04-01T11:30:59;17.20;69.40
9919;DHT22;4998;51.024;13.828;2023-04-01T11:33:36;17.40;69.30
9919;DHT22;4998;51.024;13.828;2023-04-01T11:36:14;17.50;69.20
9919;DHT22;4998;51.024;13.828;2023-04-01T11:39:00;17.50;68.50
9919;DHT22;4998;51.024;13.828;2023-04-01T11:41:36;17.60;68.10
9919;DHT22;4998;51.024;13.828;2023-04-01T11:44:15;17.60;67.50
9919;DHT22;4998;51.024;13.828;2023-04-01T11:46:50;17.60;67.30
9919;DHT22;4998;51.024;13.828;2023-04-01T11:49:41;17.60;67.20
9919;DHT22;4998;51.024;13.828;2023-04-01T11:52:21;17.50;67.20
9919;DHT22;4998;51.024;13.828;2023-04-01T11:55:06;17.40;66.90
9919;DHT22;4998;51.024;13.828;2023-04-01T11:57:51;17.50;67.20
9919;DHT22;4998;51.024;13.828;2023-04-01T12:00:41;17.30;66.80
9919;DHT22;4998;51.024;13.828;2023-04-01T12:06:23;17.30;66.50
9919;DHT22;4998;51.024;13.828;2023-04-01T12:09:01;17.30;67.00
9919;DHT22;4998;51.024;13.828;2023-04-01T12:11:34;17.30;67.10
9919;DHT22;4998;51.024;13.828;2023-04-01T12:14:13;17.30;67.60
9919;DHT22;4998;51.024;13.828;2023-04-01T12:16:55;17.30;68.20
9919;DHT22;4998;51.024;13.828;2023-04-01T12:19:31;17.30;68.00
9919;DHT22;4998;51.024;13.828;2023-04-01T12:22:18;17.40;68.00
9919;DHT22;4998;51.024;13.828;2023-04-01T12:24:55;17.40;67.80
9919;DHT22;4998;51.024;13.828;2023-04-01T12:27:34;17.40;67.50
9919;DHT22;4998;51.024;13.828;2023-04-01T12:30:27;17.40;67.30
9919;DHT22;4998;51.024;13.828;2023-04-01T12:33:10;17.40;67.10
9919;DHT22;4998;51.024;13.828;2023-04-01T12:35:50;17.40;66.90
9919;DHT22;4998;51.024;13.828;2023-04-01T12:38:28;17.40;66.90
9919;DHT22;4998;51.024;13.828;2023-04-01T12:41:12;17.40;66.60
9919;DHT22;4998;51.024;13.828;2023-04-01T12:50:05;17.40;67.50
9919;DHT22;4998;51.024;13.828;2023-04-01T12:52:47;17.30;68.30
9919;DHT22;4998;51.024;13.828;2023-04-01T12:55:33;17.30;68.70
9919;DHT22;4998;51.024;13.828;2023-04-01T12:58:22;17.20;69.30
9919;DHT22;4998;51.024;13.828;2023-04-01T13:01:29;17.20;69.20
9919;DHT22;4998;51.024;13.828;2023-04-01T13:04:21;17.10;69.70
9919;DHT22;4998;51.024;13.828;2023-04-01T13:07:20;17.10;70.40
9919;DHT22;4998;51.024;13.828;2023-04-01T13:09:55;17.00;70.60
9919;DHT22;4998;51.024;13.828;2023-04-01T13:12:35;17.00;71.80
9919;DHT22;4998;51.024;13.828;2023-04-01T13:15:20;17.00;71.80
9919;DHT22;4998;51.024;13.828;2023-04-01T13:17:53;17.10;72.40
9919;DHT22;4998;51.024;13.828;2023-04-01T13:20:32;17.10;72.60
9919;DHT22;4998;51.024;13.828;2023-04-01T13:23:11;17.20;73.30
9919;DHT22;4998;51.024;13.828;2023-04-01T13:25:49;17.30;73.40
9919;DHT22;4998;51.024;13.828;2023-04-01T13:28:22;17.40;73.20
9919;DHT22;4998;51.024;13.828;2023-04-01T13:30:57;17.50;73.50
9919;DHT22;4998;51.024;13.828;2023-04-01T13:33:33;17.60;73.10
9919;DHT22;4998;51.024;13.828;2023-04-01T13:36:11;17.70;72.90
9919;DHT22;4998;51.024;13.828;2023-04-01T13:39:02;17.80;72.70
9919;DHT22;4998;51.024;13.828;2023-04-01T13:41:55;17.80;72.10
9919;DHT22;4998;51.024;13.828;2023-04-01T13:44:32;17.90;71.80
9919;DHT22;4998;51.024;13.828;2023-04-01T13:50:31;18.00;70.90
9919;DHT22;4998;51.024;13.828;2023-04-01T13:53:17;18.00;70.60
9919;DHT22;4998;51.024;13.828;2023-04-01T13:56:08;18.00;69.90
9919;DHT22;4998;51.024;13.828;2023-04-01T13:58:53;18.00;69.60
9919;DHT22;4998;51.024;13.828;2023-04-01T14:01:29;18.00;69.70
9919;DHT22;4998;51.024;13.828;2023-04-01T14:04:34;18.00;69.40
9919;DHT22;4998;51.024;13.828;2023-04-01T14:07:15;18.00;68.60
9919;DHT22;4998;51.024;13.828;2023-04-01T14:09:56;18.00;68.20
9919;DHT22;4998;51.024;13.828;2023-04-01T14:12:31;18.00;68.40
9919;DHT22;4998;51.024;13.828;2023-04-01T14:15:27;18.00;67.70
9919;DHT22;4998;51.024;13.828;2023-04-01T14:18:10;18.10;66.90
9919;DHT22;4998;51.024;13.828;2023-04-01T14:20:41;18.10;65.70
9919;DHT22;4998;51.024;13.828;2023-04-01T14:23:40;18.10;65.10
9919;DHT22;4998;51.024;13.828;2023-04-01T14:26:22;18.10;64.60
9919;DHT22;4998;51.024;13.828;2023-04-01T14:29:10;18.00;64.30
9919;DHT22;4998;51.024;13.828;2023-04-01T14:31:51;18.00;64.30
9919;DHT22;4998;51.024;13.828;2023-04-01T14:34:33;17.90;64.00
9919;DHT22;4998;51.024;13.828;2023-04-01T14:37:11;17.80;64.10
9919;DHT22;4998;51.024;13.828;2023-04-01T14:40:11;17.80;63.90
9919;DHT22;4998;51.024;13.828;2023-04-01T14:43:04;17.60;64.50
9919;DHT22;4998;51.024;13.828;2023-04-01T14:45:46;17.60;65.60
9919;DHT22;4998;51.024;13.828;2023-04-01T14:48:26;17.50;66.00
9919;DHT22;4998;51.024;13.828;2023-04-01T14:50:55;17.50;66.50
9919;DHT22;4998;51.024;13.828;2023-04-01T14:53:31;17.50;66.80
9919;DHT22;4998;51.024;13.828;2023-04-01T14:56:01;17.50;67.60
9919;DHT22;4998;51.024;13.828;2023-04-01T14:58:44;17.60;68.20
9919;DHT22;4998;51.024;13.828;2023-04-01T15:04:23;17.70;68.80
9919;DHT22;4998;51.024;13.828;2023-04-01T15:07:02;17.80;68.40
9919;DHT22;4998;51.024;13.828;2023-04-01T15:09:36;17.80;67.30
9919;DHT22;4998;51.024;13.828;2023-04-01T15:12:15;17.90;66.80
9919;DHT22;4998;51.024;13.828;2023-04-01T15:15:01;17.80;64.80
9919;DHT22;4998;51.024;13.828;2023-04-01T15:17:42;17.80;64.50
9919;DHT22;4998;51.024;13.828;2023-04-01T15:20:33;17.70;64.20
9919;DHT22;4998;51.024;13.828;2023-04-01T15:23:18;17.70;63.20
9919;DHT22;4998;51.024;13.828;2023-04-01T15:26:11;17.70;63.10
9919;DHT22;4998;51.024;13.828;2023-04-01T15:28:44;17.60;62.90
9919;DHT22;4998;51.024;13.828;2023-04-01T15:31:15;17.60;62.70
9919;DHT22;4998;51.024;13.828;2023-04-01T15:34:05;17.50;62.50
9919;DHT22;4998;51.024;13.828;2023-04-01T15:36:41;17.50;62.40
9919;DHT22;4998;51.024;13.828;2023-04-01T15:39:13;17.50;62.50
9919;DHT22;4998;51.024;13.828;2023-04-01T15:41:50;17.40;62.40
9919;DHT22;4998;51.024;13.828;2023-04-01T15:44:43;17.40;62.20
9919;DHT22;4998;51.024;13.828;2023-04-01T15:47:37;17.40;62.50
9919;DHT22;4998;51.024;13.828;2023-04-01T15:50:37;17.30;62.20
9919;DHT22;4998;51.024;13.828;2023-04-01T15:53:18;17.20;62.30
9919;DHT22;4998;51.024;13.828;2023-04-01T15:55:57;17.20;62.40
9919;DHT22;4998;51.024;13.828;2023-04-01T15:58:47;17.10;62.50
9919;DHT22;4998;51.024;13.828;2023-04-01T16:01:27;17.00;63.00
9919;DHT22;4998;51.024;13.828;2023-04-01T16:04:13;17.00;63.20
9919;DHT22;4998;51.024;13.828;2023-04-01T16:07:04;17.00;63.70
9919;DHT22;4998;51.024;13.828;2023-04-01T16:09:44;16.90;64.30
9919;DHT22;4998;51.024;13.828;2023-04-01T16:12:18;16.90;64.20
9919;DHT22;4998;51.024;13.828;2023-04-01T16:14:57;16.90;64.20
9919;DHT22;4998;51.024;13.828;2023-04-01T16:20:32;16.90;64.00
9919;DHT22;4998;51.024;13.828;2023-04-01T16:23:14;16.80;64.00
9919;DHT22;4998;51.024;13.828;2023-04-01T16:25:49;16.80;64.00
9919;DHT22;4998;51.024;13.828;2023-04-01T16:28:22;16.80;64.00
9919;DHT22;4998;51.024;13.828;2023-04-01T16:30:57;16.70;63.90
9919;DHT22;4998;51.024;13.828;2023-04-01T16:33:36;16.70;63.70
9919;DHT22;4998;51.024;13.828;2023-04-01T16:36:22;16.60;63.50
9919;DHT22;4998;51.024;13.828;2023-04-01T16:39:22;16.60;63.80
9919;DHT22;4998;51.024;13.828;2023-04-01T16:42:09;16.50;63.80
9919;DHT22;4998;51.024;13.828;2023-04-01T16:44:48;16.50;63.90
9919;DHT22;4998;51.024;13.828;2023-04-01T16:47:20;16.50;64.00
9919;DHT22;4998;51.024;13.828;2023-04-01T16:49:52;16.50;64.30
9919;DHT22;4998;51.024;13.828;2023-04-01T16:52:40;16.40;64.50
9919;DHT22;4998;51.024;13.828;2023-04-01T16:55:16;16.40;64.60
9919;DHT22;4998;51.024;13.828;2023-04-01T16:57:50;16.40;64.40
9919;DHT22;4998;51.024;13.828;2023-04-01T17:00:24;16.40;64.60
9919;DHT22;4998;51.024;13.828;2023-04-01T17:03:04;16.40;64.80
9919;DHT22;4998;51.024;13.828;2023-04-01T17:05:46;16.40;64.80
9919;DHT22;4998;51.024;13.828;2023-04-01T17:08:28;16.40;65.10
9919;DHT22;4998;51.024;13.828;2023-04-01T17:11:02;16.30;65.30
9919;DHT22;4998;51.024;13.828;2023-04-01T17:13:40;16.30;65.40
9919;DHT22;4998;51.024;13.828;2023-04-01T17:16:21;16.30;65.40
9919;DHT22;4998;51.024;13.828;2023-04-01T17:18:56;16.30;65.70
9919;DHT22;4998;51.024;13.828;2023-04-01T17:21:49;16.30;66.10
9919;DHT22;4998;51.024;13.828;2023-04-01T17:24:36;16.30;66.50
9919;DHT22;4998;51.024;13.828;2023-04-01T17:27:15;16.30;67.20
9919;DHT22;4998;51.024;13.828;2023-04-01T17:32:53;16.30;68.50
9919;DHT22;4998;51.024;13.828;2023-04-01T17:35:32;16.30;69.80
9919;DHT22;4998;51.024;13.828;2023-04-01T17:38:10;16.40;69.40
9919;DHT22;4998;51.024;13.828;2023-04-01T17:40:50;16.40;69.70
9919;DHT22;4998;51.024;13.828;2023-04-01T17:43:29;16.40;70.00
9919;DHT22;4998;51.024;13.828;2023-04-01T17:46:02;16.40;70.40
9919;DHT22;4998;51.024;13.828;2023-04-01T17:48:41;16.40;70.60
9919;DHT22;4998;51.024;13.828;2023-04-01T17:51:22;16.40;70.80
9919;DHT22;4998;51.024;13.828;2023-04-01T17:53:56;16.30;71.50
9919;DHT22;4998;51.024;13.828;2023-04-01T17:56:35;16.30;71.80
9919;DHT22;4998;51.024;13.828;2023-04-01T17:59:13;16.30;72.10
9919;DHT22;4998;51.024;13.828;2023-04-01T18:01:55;16.30;72.20
9919;DHT22;4998;51.024;13.828;2023-04-01T18:04:40;16.20;72.40